sensor_id;sensor_type;location;lat;lon;timestamp;P1;durP1;ratioP1;P2;durP2;ratioP2
32445;SDS011;18899;50.748;7.102;2023-10-13T00:01:45;14.98;;;6.95;;
32445;SDS011;18899;50.748;7.102;2023-10-13T00:04:12;12.90;;;6.57;;
32445;SDS011;18899;50.748;7.102;2023-10-13T00:06:37;17.27;;;6.95;;
32445;SDS011;18899;50.748;7.102;2023-10-13T00:09:03;15.32;;;6.88;;
32445;SDS011;18899;50.748;7.102;2023-10-13T00:11:29;14.93;;;6.50;;
32445;SDS011;18899;50.748;7.102;2023-10-13T00:13:55;17.45;;;6.78;;
32445;SDS011;18899;50.748;7.102;2023-10-13T00:16:21;15.40;;;6.90;;
32445;SDS011;18899;50.748;7.102;2023-10-13T00:18:47;11.80;;;6.25;;
32445;SDS011;18899;50.748;7.102;2023-10-13T00:21:15;13.68;;;6.88;;
32445;SDS011;18899;50.748;7.102;2023-10-13T00:23:45;13.60;;;5.95;;
32445;SDS011;18899;50.748;7.102;2023-10-13T00:26:18;15.63;;;6.95;;
32445;SDS011;18899;50.748;7.102;2023-10-13T00:28:48;13.73;;;6.22;;
32445;SDS011;18899;50.748;7.102;2023-10-13T00:31:23;16.35;;;6.53;;
32445;SDS011;18899;50.748;7.102;2023-10-13T00:33:51;14.38;;;6.68;;
32445;SDS011;18899;50.748;7.102;2023-10-13T00:36:20;12.48;;;6.53;;
32445;SDS011;18899;50.748;7.102;2023-10-13T00:38:46;13.43;;;6.00;;
32445;SDS011;18899;50.748;7.102;2023-10-13T00:41:15;11.27;;;6.72;;
32445;SDS011;18899;50.748;7.102;2023-10-13T00:43:45;14.18;;;6.72;;
32445;SDS011;18899;50.748;7.102;2023-10-13T00:46:32;11.95;;;6.43;;
32445;SDS011;18899;50.748;7.102;2023-10-13T00:49:00;13.27;;;6.00;;
32445;SDS011;18899;50.748;7.102;2023-10-13T00:51:29;15.25;;;6.38;;
32445;SDS011;18899;50.748;7.102;2023-10-13T00:54:03;14.45;;;6.10;;
32445;SDS011;18899;50.748;7.102;2023-10-13T00:56:37;11.55;;;6.68;;
32445;SDS011;18899;50.748;7.102;2023-10-13T00:59:15;22.13;;;7.22;;
32445;SDS011;18899;50.748;7.102;2023-10-13T01:01:41;15.82;;;6.85;;
32445;SDS011;18899;50.748;7.102;2023-10-13T01:04:08;16.80;;;7.45;;
32445;SDS011;18899;50.748;7.102;2023-10-13T01:06:37;15.65;;;7.07;;
32445;SDS011;18899;50.748;7.102;2023-10-13T01:09:07;13.65;;;6.47;;
32445;SDS011;18899;50.748;7.102;2023-10-13T01:11:48;13.43;;;6.57;;
32445;SDS011;18899;50.748;7.102;2023-10-13T01:14:18;15.32;;;7.10;;
32445;SDS011;18899;50.748;7.102;2023-10-13T01:16:45;18.95;;;7.15;;
32445;SDS011;18899;50.748;7.102;2023-10-13T01:19:14;15.80;;;6.82;;
32445;SDS011;18899;50.748;7.102;2023-10-13T01:21:49;15.23;;;7.30;;
32445;SDS011;18899;50.748;7.102;2023-10-13T01:24:15;13.15;;;7.35;;
32445;SDS011;18899;50.748;7.102;2023-10-13T01:26:44;10.77;;;7.03;;
32445;SDS011;18899;50.748;7.102;2023-10-13T01:29:10;15.65;;;7.68;;
32445;SDS011;18899;50.748;7.102;2023-10-13T01:31:42;15.35;;;6.72;;
32445;SDS011;18899;50.748;7.102;2023-10-13T01:34:14;20.50;;;7.90;;
32445;SDS011;18899;50.748;7.102;2023-10-13T01:36:50;15.98;;;7.38;;
32445;SDS011;18899;50.748;7.102;2023-10-13T01:39:17;13.75;;;7.43;;
32445;SDS011;18899;50.748;7.102;2023-10-13T01:41:44;20.13;;;7.45;;
32445;SDS011;18899;50.748;7.102;2023-10-13T01:44:10;13.00;;;7.28;;
32445;SDS011;18899;50.748;7.102;2023-10-13T01:46:37;22.73;;;7.72;;
32445;SDS011;18899;50.748;7.102;2023-10-13T01:49:07;22.50;;;7.82;;
32445;SDS011;18899;50.748;7.102;2023-10-13T01:51:33;18.08;;;7.70;;
32445;SDS011;18899;50.748;7.102;2023-10-13T01:53:59;23.08;;;7.38;;
32445;SDS011;18899;50.748;7.102;2023-10-13T01:56:28;16.02;;;7.03;;
32445;SDS011;18899;50.748;7.102;2023-10-13T01:58:56;14.00;;;7.22;;
32445;SDS011;18899;50.748;7.102;2023-10-13T02:01:22;19.92;;;7.63;;
32445;SDS011;18899;50.748;7.102;2023-10-13T02:03:57;16.48;;;8.15;;
32445;SDS011;18899;50.748;7.102;2023-10-13T02:06:29;16.15;;;7.63;;
32445;SDS011;18899;50.748;7.102;2023-10-13T02:09:02;14.68;;;7.97;;
32445;SDS011;18899;50.748;7.102;2023-10-13T02:11:40;19.42;;;8.30;;
32445;SDS011;18899;50.748;7.102;2023-10-13T02:14:07;17.00;;;7.90;;
32445;SDS011;18899;50.748;7.102;2023-10-13T02:16:36;19.70;;;8.63;;
32445;SDS011;18899;50.748;7.102;2023-10-13T02:19:01;14.77;;;7.95;;
32445;SDS011;18899;50.748;7.102;2023-10-13T02:21:31;21.40;;;8.27;;
32445;SDS011;18899;50.748;7.102;2023-10-13T02:24:00;17.05;;;8.27;;
32445;SDS011;18899;50.748;7.102;2023-10-13T02:26:26;21.90;;;9.02;;
32445;SDS011;18899;50.748;7.102;2023-10-13T02:29:03;13.88;;;7.97;;
32445;SDS011;18899;50.748;7.102;2023-10-13T02:31:32;25.13;;;8.68;;
32445;SDS011;18899;50.748;7.102;2023-10-13T02:34:00;19.88;;;8.43;;
32445;SDS011;18899;50.748;7.102;2023-10-13T02:36:26;17.35;;;8.82;;
32445;SDS011;18899;50.748;7.102;2023-10-13T02:39:10;18.77;;;8.38;;
32445;SDS011;18899;50.748;7.102;2023-10-13T02:41:38;17.67;;;8.90;;
32445;SDS011;18899;50.748;7.102;2023-10-13T02:44:05;20.30;;;9.20;;
32445;SDS011;18899;50.748;7.102;2023-10-13T02:46:32;16.60;;;8.75;;
32445;SDS011;18899;50.748;7.102;2023-10-13T02:49:00;21.08;;;9.77;;
32445;SDS011;18899;50.748;7.102;2023-10-13T02:51:34;20.35;;;9.30;;
32445;SDS011;18899;50.748;7.102;2023-10-13T02:54:00;25.33;;;9.70;;
32445;SDS011;18899;50.748;7.102;2023-10-13T02:56:35;16.02;;;8.93;;
32445;SDS011;18899;50.748;7.102;2023-10-13T02:59:01;15.57;;;9.02;;
32445;SDS011;18899;50.748;7.102;2023-10-13T03:01:34;21.17;;;9.10;;
32445;SDS011;18899;50.748;7.102;2023-10-13T03:04:01;21.75;;;8.75;;
32445;SDS011;18899;50.748;7.102;2023-10-13T03:06:38;17.55;;;8.68;;
32445;SDS011;18899;50.748;7.102;2023-10-13T03:09:07;14.23;;;8.32;;
32445;SDS011;18899;50.748;7.102;2023-10-13T03:11:46;23.15;;;8.48;;
32445;SDS011;18899;50.748;7.102;2023-10-13T03:14:16;14.40;;;8.13;;
32445;SDS011;18899;50.748;7.102;2023-10-13T03:16:54;19.23;;;8.65;;
32445;SDS011;18899;50.748;7.102;2023-10-13T03:19:27;20.55;;;8.70;;
32445;SDS011;18899;50.748;7.102;2023-10-13T03:21:57;17.55;;;8.32;;
32445;SDS011;18899;50.748;7.102;2023-10-13T03:24:31;19.00;;;8.45;;
32445;SDS011;18899;50.748;7.102;2023-10-13T03:27:00;18.65;;;9.10;;
32445;SDS011;18899;50.748;7.102;2023-10-13T03:29:35;16.58;;;8.02;;
32445;SDS011;18899;50.748;7.102;2023-10-13T03:32:01;19.58;;;7.95;;
32445;SDS011;18899;50.748;7.102;2023-10-13T03:34:36;16.05;;;8.00;;
32445;SDS011;18899;50.748;7.102;2023-10-13T03:37:06;13.73;;;7.00;;
32445;SDS011;18899;50.748;7.102;2023-10-13T03:39:43;15.00;;;7.90;;
32445;SDS011;18899;50.748;7.102;2023-10-13T03:42:10;17.80;;;7.68;;
32445;SDS011;18899;50.748;7.102;2023-10-13T03:44:43;19.02;;;7.57;;
32445;SDS011;18899;50.748;7.102;2023-10-13T03:47:12;18.08;;;7.55;;
32445;SDS011;18899;50.748;7.102;2023-10-13T03:49:51;16.45;;;7.15;;
32445;SDS011;18899;50.748;7.102;2023-10-13T03:52:38;14.10;;;7.50;;
32445;SDS011;18899;50.748;7.102;2023-10-13T03:55:03;19.13;;;7.47;;
32445;SDS011;18899;50.748;7.102;2023-10-13T03:57:30;15.68;;;6.78;;
32445;SDS011;18899;50.748;7.102;2023-10-13T03:59:58;18.33;;;7.25;;
32445;SDS011;18899;50.748;7.102;2023-10-13T04:02:33;13.30;;;7.55;;
32445;SDS011;18899;50.748;7.102;2023-10-13T04:04:58;15.30;;;6.97;;
32445;SDS011;18899;50.748;7.102;2023-10-13T04:07:32;15.32;;;7.40;;
32445;SDS011;18899;50.748;7.102;2023-10-13T04:09:58;16.13;;;7.82;;
32445;SDS011;18899;50.748;7.102;2023-10-13T04:12:55;20.63;;;8.75;;
32445;SDS011;18899;50.748;7.102;2023-10-13T04:15:39;15.50;;;8.00;;
32445;SDS011;18899;50.748;7.102;2023-10-13T04:18:27;17.48;;;8.07;;
32445;SDS011;18899;50.748;7.102;2023-10-13T04:21:11;22.08;;;8.63;;
32445;SDS011;18899;50.748;7.102;2023-10-13T04:23:56;16.10;;;7.85;;
32445;SDS011;18899;50.748;7.102;2023-10-13T04:26:34;23.40;;;7.75;;
32445;SDS011;18899;50.748;7.102;2023-10-13T04:29:07;13.55;;;7.70;;
32445;SDS011;18899;50.748;7.102;2023-10-13T04:31:56;15.85;;;7.38;;
32445;SDS011;18899;50.748;7.102;2023-10-13T04:34:25;16.63;;;7.65;;
32445;SDS011;18899;50.748;7.102;2023-10-13T04:36:53;18.92;;;7.50;;
32445;SDS011;18899;50.748;7.102;2023-10-13T04:39:36;20.73;;;7.50;;
32445;SDS011;18899;50.748;7.102;2023-10-13T04:42:03;17.50;;;7.68;;
32445;SDS011;18899;50.748;7.102;2023-10-13T04:45:01;14.15;;;7.57;;
32445;SDS011;18899;50.748;7.102;2023-10-13T04:47:41;17.85;;;8.02;;
32445;SDS011;18899;50.748;7.102;2023-10-13T04:50:12;24.05;;;7.40;;
32445;SDS011;18899;50.748;7.102;2023-10-13T04:52:47;13.18;;;6.85;;
32445;SDS011;18899;50.748;7.102;2023-10-13T04:55:26;14.43;;;7.15;;
32445;SDS011;18899;50.748;7.102;2023-10-13T04:58:13;13.38;;;6.60;;
32445;SDS011;18899;50.748;7.102;2023-10-13T05:01:01;24.40;;;7.32;;
32445;SDS011;18899;50.748;7.102;2023-10-13T05:03:46;15.52;;;7.10;;
32445;SDS011;18899;50.748;7.102;2023-10-13T05:06:31;14.07;;;7.32;;
32445;SDS011;18899;50.748;7.102;2023-10-13T05:09:09;11.75;;;6.63;;
32445;SDS011;18899;50.748;7.102;2023-10-13T05:11:54;18.98;;;6.38;;
32445;SDS011;18899;50.748;7.102;2023-10-13T05:14:38;19.35;;;6.72;;
32445;SDS011;18899;50.748;7.102;2023-10-13T05:17:23;14.10;;;6.30;;
32445;SDS011;18899;50.748;7.102;2023-10-13T05:20:07;15.23;;;5.88;;
32445;SDS011;18899;50.748;7.102;2023-10-13T05:22:51;14.05;;;6.28;;
32445;SDS011;18899;50.748;7.102;2023-10-13T05:25:36;14.32;;;6.43;;
32445;SDS011;18899;50.748;7.102;2023-10-13T05:28:21;17.48;;;6.03;;
32445;SDS011;18899;50.748;7.102;2023-10-13T05:31:06;16.17;;;6.18;;
32445;SDS011;18899;50.748;7.102;2023-10-13T05:33:51;15.13;;;6.30;;
32445;SDS011;18899;50.748;7.102;2023-10-13T05:36:35;21.80;;;6.72;;
32445;SDS011;18899;50.748;7.102;2023-10-13T05:39:19;18.42;;;6.47;;
32445;SDS011;18899;50.748;7.102;2023-10-13T05:42:14;15.10;;;6.05;;
32445;SDS011;18899;50.748;7.102;2023-10-13T05:44:59;13.52;;;6.03;;
32445;SDS011;18899;50.748;7.102;2023-10-13T05:47:42;16.02;;;6.25;;
32445;SDS011;18899;50.748;7.102;2023-10-13T05:50:09;14.95;;;5.75;;
32445;SDS011;18899;50.748;7.102;2023-10-13T05:52:54;16.77;;;5.70;;
32445;SDS011;18899;50.748;7.102;2023-10-13T05:55:25;12.00;;;5.38;;
32445;SDS011;18899;50.748;7.102;2023-10-13T05:58:10;14.32;;;6.18;;
32445;SDS011;18899;50.748;7.102;2023-10-13T06:00:55;11.88;;;5.40;;
32445;SDS011;18899;50.748;7.102;2023-10-13T06:03:39;13.23;;;5.30;;
32445;SDS011;18899;50.748;7.102;2023-10-13T06:06:24;17.35;;;5.60;;
32445;SDS011;18899;50.748;7.102;2023-10-13T06:09:08;14.15;;;5.40;;
32445;SDS011;18899;50.748;7.102;2023-10-13T06:11:52;18.17;;;5.50;;
32445;SDS011;18899;50.748;7.102;2023-10-13T06:14:36;13.10;;;5.18;;
32445;SDS011;18899;50.748;7.102;2023-10-13T06:17:20;15.05;;;5.13;;
32445;SDS011;18899;50.748;7.102;2023-10-13T06:20:05;18.08;;;5.78;;
32445;SDS011;18899;50.748;7.102;2023-10-13T06:22:49;15.70;;;5.32;;
32445;SDS011;18899;50.748;7.102;2023-10-13T06:25:33;13.07;;;4.63;;
32445;SDS011;18899;50.748;7.102;2023-10-13T06:28:18;15.40;;;5.68;;
32445;SDS011;18899;50.748;7.102;2023-10-13T06:31:03;11.93;;;4.65;;
32445;SDS011;18899;50.748;7.102;2023-10-13T06:33:32;16.25;;;4.60;;
32445;SDS011;18899;50.748;7.102;2023-10-13T06:35:59;15.82;;;4.47;;
32445;SDS011;18899;50.748;7.102;2023-10-13T06:38:26;16.88;;;4.95;;
32445;SDS011;18899;50.748;7.102;2023-10-13T06:40:56;16.70;;;4.82;;
32445;SDS011;18899;50.748;7.102;2023-10-13T06:43:22;18.38;;;4.68;;
32445;SDS011;18899;50.748;7.102;2023-10-13T06:45:48;24.60;;;4.80;;
32445;SDS011;18899;50.748;7.102;2023-10-13T06:48:27;20.15;;;4.97;;
32445;SDS011;18899;50.748;7.102;2023-10-13T06:50:52;15.68;;;4.88;;
32445;SDS011;18899;50.748;7.102;2023-10-13T06:53:20;17.98;;;5.72;;
32445;SDS011;18899;50.748;7.102;2023-10-13T06:55:47;16.55;;;5.07;;
32445;SDS011;18899;50.748;7.102;2023-10-13T06:58:14;13.82;;;4.93;;
32445;SDS011;18899;50.748;7.102;2023-10-13T07:00:42;14.52;;;4.40;;
32445;SDS011;18899;50.748;7.102;2023-10-13T07:03:18;22.45;;;4.68;;
32445;SDS011;18899;50.748;7.102;2023-10-13T07:05:44;16.08;;;4.82;;
32445;SDS011;18899;50.748;7.102;2023-10-13T07:08:12;14.88;;;4.15;;
32445;SDS011;18899;50.748;7.102;2023-10-13T07:10:52;19.50;;;4.45;;
32445;SDS011;18899;50.748;7.102;2023-10-13T07:13:38;19.63;;;4.57;;
32445;SDS011;18899;50.748;7.102;2023-10-13T07:16:04;19.52;;;4.68;;
32445;SDS011;18899;50.748;7.102;2023-10-13T07:18:37;17.25;;;4.82;;
32445;SDS011;18899;50.748;7.102;2023-10-13T07:21:14;23.45;;;5.20;;
32445;SDS011;18899;50.748;7.102;2023-10-13T07:23:40;17.00;;;4.35;;
32445;SDS011;18899;50.748;7.102;2023-10-13T07:26:10;23.05;;;4.35;;
32445;SDS011;18899;50.748;7.102;2023-10-13T07:28:37;16.27;;;4.90;;
32445;SDS011;18899;50.748;7.102;2023-10-13T07:31:08;17.90;;;4.15;;
32445;SDS011;18899;50.748;7.102;2023-10-13T07:33:44;22.65;;;5.03;;
32445;SDS011;18899;50.748;7.102;2023-10-13T07:36:10;15.18;;;4.22;;
32445;SDS011;18899;50.748;7.102;2023-10-13T07:38:40;22.70;;;4.15;;
32445;SDS011;18899;50.748;7.102;2023-10-13T07:41:13;16.20;;;4.10;;
32445;SDS011;18899;50.748;7.102;2023-10-13T07:43:41;17.33;;;5.05;;
32445;SDS011;18899;50.748;7.102;2023-10-13T07:46:07;16.08;;;4.22;;
32445;SDS011;18899;50.748;7.102;2023-10-13T07:48:37;10.18;;;4.00;;
32445;SDS011;18899;50.748;7.102;2023-10-13T07:51:08;13.98;;;4.50;;
32445;SDS011;18899;50.748;7.102;2023-10-13T07:53:37;20.27;;;4.25;;
32445;SDS011;18899;50.748;7.102;2023-10-13T07:56:05;17.63;;;5.32;;
32445;SDS011;18899;50.748;7.102;2023-10-13T07:58:33;22.67;;;4.05;;
32445;SDS011;18899;50.748;7.102;2023-10-13T08:00:59;18.65;;;4.45;;
32445;SDS011;18899;50.748;7.102;2023-10-13T08:03:41;14.43;;;4.28;;
32445;SDS011;18899;50.748;7.102;2023-10-13T08:06:10;12.98;;;4.25;;
32445;SDS011;18899;50.748;7.102;2023-10-13T08:08:37;18.52;;;4.18;;
32445;SDS011;18899;50.748;7.102;2023-10-13T08:11:07;20.00;;;4.25;;
32445;SDS011;18899;50.748;7.102;2023-10-13T08:13:50;10.35;;;3.63;;
32445;SDS011;18899;50.748;7.102;2023-10-13T08:16:24;18.83;;;4.70;;
32445;SDS011;18899;50.748;7.102;2023-10-13T08:22:05;15.83;;;4.67;;
32445;SDS011;18899;50.748;7.102;2023-10-13T08:24:43;14.23;;;3.92;;
32445;SDS011;18899;50.748;7.102;2023-10-13T08:27:09;14.48;;;4.63;;
32445;SDS011;18899;50.748;7.102;2023-10-13T08:29:44;20.25;;;3.90;;
32445;SDS011;18899;50.748;7.102;2023-10-13T08:32:27;11.90;;;5.25;;
32445;SDS011;18899;50.748;7.102;2023-10-13T08:35:02;13.82;;;4.07;;
32445;SDS011;18899;50.748;7.102;2023-10-13T08:37:29;21.88;;;4.47;;
32445;SDS011;18899;50.748;7.102;2023-10-13T08:40:14;15.25;;;4.50;;
32445;SDS011;18899;50.748;7.102;2023-10-13T08:43:06;20.42;;;4.15;;
32445;SDS011;18899;50.748;7.102;2023-10-13T08:45:37;15.85;;;4.95;;
32445;SDS011;18899;50.748;7.102;2023-10-13T08:48:03;18.00;;;5.18;;
32445;SDS011;18899;50.748;7.102;2023-10-13T08:50:37;13.90;;;4.50;;
32445;SDS011;18899;50.748;7.102;2023-10-13T08:53:25;14.00;;;4.75;;
32445;SDS011;18899;50.748;7.102;2023-10-13T08:55:56;13.85;;;4.18;;
32445;SDS011;18899;50.748;7.102;2023-10-13T08:58:49;19.92;;;4.50;;
32445;SDS011;18899;50.748;7.102;2023-10-13T09:01:18;12.85;;;4.50;;
32445;SDS011;18899;50.748;7.102;2023-10-13T09:03:58;16.08;;;4.88;;
32445;SDS011;18899;50.748;7.102;2023-10-13T09:06:54;15.32;;;4.55;;
32445;SDS011;18899;50.748;7.102;2023-10-13T09:12:15;19.38;;;5.20;;
32445;SDS011;18899;50.748;7.102;2023-10-13T09:17:42;11.25;;;4.88;;
32445;SDS011;18899;50.748;7.102;2023-10-13T09:20:15;13.68;;;4.38;;
32445;SDS011;18899;50.748;7.102;2023-10-13T09:22:47;16.63;;;4.95;;
32445;SDS011;18899;50.748;7.102;2023-10-13T09:28:01;16.02;;;4.47;;
32445;SDS011;18899;50.748;7.102;2023-10-13T09:30:27;14.57;;;4.95;;
32445;SDS011;18899;50.748;7.102;2023-10-13T09:33:03;13.30;;;4.60;;
32445;SDS011;18899;50.748;7.102;2023-10-13T09:35:29;14.27;;;4.82;;
32445;SDS011;18899;50.748;7.102;2023-10-13T09:37:59;16.45;;;5.05;;
32445;SDS011;18899;50.748;7.102;2023-10-13T09:40:27;16.55;;;4.97;;
32445;SDS011;18899;50.748;7.102;2023-10-13T09:43:03;18.83;;;5.18;;
32445;SDS011;18899;50.748;7.102;2023-10-13T09:45:33;13.00;;;4.90;;
32445;SDS011;18899;50.748;7.102;2023-10-13T09:48:10;12.85;;;4.70;;
32445;SDS011;18899;50.748;7.102;2023-10-13T09:50:46;16.80;;;5.07;;
32445;SDS011;18899;50.748;7.102;2023-10-13T09:53:13;10.40;;;4.63;;
32445;SDS011;18899;50.748;7.102;2023-10-13T09:55:50;18.05;;;5.05;;
32445;SDS011;18899;50.748;7.102;2023-10-13T09:58:46;16.15;;;5.10;;
32445;SDS011;18899;50.748;7.102;2023-10-13T10:01:19;12.77;;;4.45;;
32445;SDS011;18899;50.748;7.102;2023-10-13T10:04:05;15.55;;;4.60;;
32445;SDS011;18899;50.748;7.102;2023-10-13T10:06:39;12.32;;;4.05;;
32445;SDS011;18899;50.748;7.102;2023-10-13T10:09:09;16.40;;;4.55;;
32445;SDS011;18899;50.748;7.102;2023-10-13T10:14:48;16.88;;;5.03;;
32445;SDS011;18899;50.748;7.102;2023-10-13T10:17:22;18.38;;;4.57;;
32445;SDS011;18899;50.748;7.102;2023-10-13T10:19:51;14.25;;;4.65;;
32445;SDS011;18899;50.748;7.102;2023-10-13T10:22:28;16.75;;;4.85;;
32445;SDS011;18899;50.748;7.102;2023-10-13T10:25:05;15.23;;;4.75;;
32445;SDS011;18899;50.748;7.102;2023-10-13T10:27:59;13.38;;;4.93;;
32445;SDS011;18899;50.748;7.102;2023-10-13T10:30:33;15.38;;;4.80;;
32445;SDS011;18899;50.748;7.102;2023-10-13T10:33:07;11.35;;;4.82;;
32445;SDS011;18899;50.748;7.102;2023-10-13T10:35:44;10.57;;;5.00;;
32445;SDS011;18899;50.748;7.102;2023-10-13T10:38:11;9.13;;;4.25;;
32445;SDS011;18899;50.748;7.102;2023-10-13T10:40:53;15.55;;;4.35;;
32445;SDS011;18899;50.748;7.102;2023-10-13T10:43:26;13.95;;;5.25;;
32445;SDS011;18899;50.748;7.102;2023-10-13T10:45:54;17.40;;;4.78;;
32445;SDS011;18899;50.748;7.102;2023-10-13T10:48:24;14.67;;;5.27;;
32445;SDS011;18899;50.748;7.102;2023-10-13T10:50:59;13.07;;;4.53;;
32445;SDS011;18899;50.748;7.102;2023-10-13T10:53:33;12.35;;;5.03;;
32445;SDS011;18899;50.748;7.102;2023-10-13T10:56:08;14.38;;;5.00;;
32445;SDS011;18899;50.748;7.102;2023-10-13T10:58:57;19.05;;;4.20;;
32445;SDS011;18899;50.748;7.102;2023-10-13T11:01:25;14.70;;;4.97;;
32445;SDS011;18899;50.748;7.102;2023-10-13T11:04:05;20.33;;;5.43;;
32445;SDS011;18899;50.748;7.102;2023-10-13T11:06:56;16.27;;;5.00;;
32445;SDS011;18899;50.748;7.102;2023-10-13T11:09:26;12.32;;;4.78;;
32445;SDS011;18899;50.748;7.102;2023-10-13T11:11:56;16.13;;;5.13;;
32445;SDS011;18899;50.748;7.102;2023-10-13T11:14:48;12.82;;;4.50;;
32445;SDS011;18899;50.748;7.102;2023-10-13T11:17:22;15.57;;;4.53;;
32445;SDS011;18899;50.748;7.102;2023-10-13T11:20:13;13.88;;;4.63;;
32445;SDS011;18899;50.748;7.102;2023-10-13T11:22:46;16.58;;;4.35;;
32445;SDS011;18899;50.748;7.102;2023-10-13T11:25:19;15.30;;;4.60;;
32445;SDS011;18899;50.748;7.102;2023-10-13T11:27:47;25.13;;;4.57;;
32445;SDS011;18899;50.748;7.102;2023-10-13T11:30:13;12.68;;;4.57;;
32445;SDS011;18899;50.748;7.102;2023-10-13T11:32:44;18.05;;;4.95;;
32445;SDS011;18899;50.748;7.102;2023-10-13T11:35:10;16.25;;;4.85;;
32445;SDS011;18899;50.748;7.102;2023-10-13T11:37:45;13.07;;;4.70;;
32445;SDS011;18899;50.748;7.102;2023-10-13T11:40:38;13.57;;;4.30;;
32445;SDS011;18899;50.748;7.102;2023-10-13T11:43:24;19.30;;;4.63;;
32445;SDS011;18899;50.748;7.102;2023-10-13T11:45:51;24.73;;;4.65;;
32445;SDS011;18899;50.748;7.102;2023-10-13T11:48:35;8.55;;;3.88;;
32445;SDS011;18899;50.748;7.102;2023-10-13T11:51:01;16.10;;;4.68;;
32445;SDS011;18899;50.748;7.102;2023-10-13T11:53:37;15.88;;;4.70;;
32445;SDS011;18899;50.748;7.102;2023-10-13T11:56:03;16.25;;;4.43;;
32445;SDS011;18899;50.748;7.102;2023-10-13T11:58:34;13.57;;;4.60;;
32445;SDS011;18899;50.748;7.102;2023-10-13T12:01:03;11.75;;;4.38;;
32445;SDS011;18899;50.748;7.102;2023-10-13T12:03:41;15.65;;;3.95;;
32445;SDS011;18899;50.748;7.102;2023-10-13T12:06:26;14.93;;;4.72;;
32445;SDS011;18899;50.748;7.102;2023-10-13T12:11:43;15.38;;;4.22;;
32445;SDS011;18899;50.748;7.102;2023-10-13T12:14:15;15.52;;;4.38;;
32445;SDS011;18899;50.748;7.102;2023-10-13T12:16:45;10.27;;;4.30;;
32445;SDS011;18899;50.748;7.102;2023-10-13T12:19:25;16.40;;;4.97;;
32445;SDS011;18899;50.748;7.102;2023-10-13T12:21:54;12.25;;;4.70;;
32445;SDS011;18899;50.748;7.102;2023-10-13T12:24:30;12.65;;;4.43;;
32445;SDS011;18899;50.748;7.102;2023-10-13T12:27:04;11.40;;;4.43;;
32445;SDS011;18899;50.748;7.102;2023-10-13T12:29:58;13.55;;;5.15;;
32445;SDS011;18899;50.748;7.102;2023-10-13T12:32:31;15.65;;;4.20;;
32445;SDS011;18899;50.748;7.102;2023-10-13T12:34:59;14.32;;;4.28;;
32445;SDS011;18899;50.748;7.102;2023-10-13T12:37:25;19.48;;;4.50;;
32445;SDS011;18899;50.748;7.102;2023-10-13T12:40:04;16.45;;;4.20;;
32445;SDS011;18899;50.748;7.102;2023-10-13T12:42:49;14.65;;;4.35;;
32445;SDS011;18899;50.748;7.102;2023-10-13T12:45:38;13.65;;;4.88;;
32445;SDS011;18899;50.748;7.102;2023-10-13T12:48:25;13.02;;;4.45;;
32445;SDS011;18899;50.748;7.102;2023-10-13T12:51:10;15.73;;;4.32;;
32445;SDS011;18899;50.748;7.102;2023-10-13T12:53:48;19.15;;;4.57;;
32445;SDS011;18899;50.748;7.102;2023-10-13T12:56:15;17.95;;;4.40;;
32445;SDS011;18899;50.748;7.102;2023-10-13T12:58:42;16.20;;;4.70;;
32445;SDS011;18899;50.748;7.102;2023-10-13T13:01:17;13.32;;;4.32;;
32445;SDS011;18899;50.748;7.102;2023-10-13T13:03:45;19.95;;;4.93;;
32445;SDS011;18899;50.748;7.102;2023-10-13T13:06:15;14.05;;;4.50;;
32445;SDS011;18899;50.748;7.102;2023-10-13T13:08:51;13.05;;;4.63;;
32445;SDS011;18899;50.748;7.102;2023-10-13T13:11:17;14.88;;;4.90;;
32445;SDS011;18899;50.748;7.102;2023-10-13T13:13:43;16.17;;;4.93;;
32445;SDS011;18899;50.748;7.102;2023-10-13T13:16:11;13.65;;;5.00;;
32445;SDS011;18899;50.748;7.102;2023-10-13T13:18:37;16.33;;;5.15;;
32445;SDS011;18899;50.748;7.102;2023-10-13T13:21:02;14.85;;;4.78;;
32445;SDS011;18899;50.748;7.102;2023-10-13T13:23:31;13.25;;;4.22;;
32445;SDS011;18899;50.748;7.102;2023-10-13T13:25:59;14.75;;;4.20;;
32445;SDS011;18899;50.748;7.102;2023-10-13T13:28:25;13.35;;;4.00;;
32445;SDS011;18899;50.748;7.102;2023-10-13T13:30:53;12.52;;;4.82;;
32445;SDS011;18899;50.748;7.102;2023-10-13T13:33:19;12.85;;;4.57;;
32445;SDS011;18899;50.748;7.102;2023-10-13T13:35:52;15.98;;;3.80;;
32445;SDS011;18899;50.748;7.102;2023-10-13T13:38:18;11.35;;;4.40;;
32445;SDS011;18899;50.748;7.102;2023-10-13T13:40:56;10.88;;;4.63;;
32445;SDS011;18899;50.748;7.102;2023-10-13T13:43:23;16.02;;;4.90;;
32445;SDS011;18899;50.748;7.102;2023-10-13T13:48:34;24.35;;;4.95;;
32445;SDS011;18899;50.748;7.102;2023-10-13T13:51:06;18.75;;;3.85;;
32445;SDS011;18899;50.748;7.102;2023-10-13T13:56:17;17.85;;;4.10;;
32445;SDS011;18899;50.748;7.102;2023-10-13T13:58:44;18.75;;;4.10;;
32445;SDS011;18899;50.748;7.102;2023-10-13T14:01:10;19.67;;;4.18;;
32445;SDS011;18899;50.748;7.102;2023-10-13T14:03:51;16.00;;;4.47;;
32445;SDS011;18899;50.748;7.102;2023-10-13T14:08:46;13.15;;;4.05;;
32445;SDS011;18899;50.748;7.102;2023-10-13T14:11:13;16.63;;;4.78;;
32445;SDS011;18899;50.748;7.102;2023-10-13T14:14:00;22.60;;;5.40;;
32445;SDS011;18899;50.748;7.102;2023-10-13T14:16:29;13.45;;;5.20;;
32445;SDS011;18899;50.748;7.102;2023-10-13T14:18:55;10.57;;;3.90;;
32445;SDS011;18899;50.748;7.102;2023-10-13T14:21:20;13.88;;;4.28;;
32445;SDS011;18899;50.748;7.102;2023-10-13T14:23:49;11.40;;;4.65;;
32445;SDS011;18899;50.748;7.102;2023-10-13T14:26:18;16.58;;;4.60;;
32445;SDS011;18899;50.748;7.102;2023-10-13T14:28:46;17.80;;;4.30;;
32445;SDS011;18899;50.748;7.102;2023-10-13T14:31:30;15.90;;;4.50;;
32445;SDS011;18899;50.748;7.102;2023-10-13T14:33:56;18.67;;;4.72;;
32445;SDS011;18899;50.748;7.102;2023-10-13T14:36:22;12.57;;;4.18;;
32445;SDS011;18899;50.748;7.102;2023-10-13T14:38:48;14.73;;;3.90;;
32445;SDS011;18899;50.748;7.102;2023-10-13T14:41:17;17.20;;;5.18;;
32445;SDS011;18899;50.748;7.102;2023-10-13T14:43:43;13.50;;;4.30;;
32445;SDS011;18899;50.748;7.102;2023-10-13T14:48:44;14.35;;;3.72;;
32445;SDS011;18899;50.748;7.102;2023-10-13T14:51:13;13.38;;;4.93;;
32445;SDS011;18899;50.748;7.102;2023-10-13T14:53:42;12.75;;;4.22;;
32445;SDS011;18899;50.748;7.102;2023-10-13T14:56:11;13.23;;;3.90;;
32445;SDS011;18899;50.748;7.102;2023-10-13T14:58:40;11.95;;;3.55;;
32445;SDS011;18899;50.748;7.102;2023-10-13T15:01:12;16.58;;;4.40;;
32445;SDS011;18899;50.748;7.102;2023-10-13T15:03:40;18.27;;;4.70;;
32445;SDS011;18899;50.748;7.102;2023-10-13T15:06:14;14.32;;;4.63;;
32445;SDS011;18899;50.748;7.102;2023-10-13T15:08:46;9.55;;;3.83;;
32445;SDS011;18899;50.748;7.102;2023-10-13T15:11:13;9.57;;;3.77;;
32445;SDS011;18899;50.748;7.102;2023-10-13T15:13:42;14.55;;;4.38;;
32445;SDS011;18899;50.748;7.102;2023-10-13T15:16:17;12.63;;;4.22;;
32445;SDS011;18899;50.748;7.102;2023-10-13T15:18:44;12.13;;;4.25;;
32445;SDS011;18899;50.748;7.102;2023-10-13T15:21:11;8.52;;;3.92;;
32445;SDS011;18899;50.748;7.102;2023-10-13T15:23:38;6.63;;;3.30;;
32445;SDS011;18899;50.748;7.102;2023-10-13T15:26:10;9.23;;;4.03;;
32445;SDS011;18899;50.748;7.102;2023-10-13T15:28:38;15.32;;;4.63;;
32445;SDS011;18899;50.748;7.102;2023-10-13T15:31:13;9.70;;;3.92;;
32445;SDS011;18899;50.748;7.102;2023-10-13T15:33:50;12.15;;;4.10;;
32445;SDS011;18899;50.748;7.102;2023-10-13T15:36:17;16.05;;;4.07;;
32445;SDS011;18899;50.748;7.102;2023-10-13T15:38:44;10.05;;;4.13;;
32445;SDS011;18899;50.748;7.102;2023-10-13T15:41:11;12.68;;;4.00;;